Terminal Aerodrome Forecast
Issued by NWS

Home | Current Version | Previous Version | Text Only | Print | Product List | Glossary On
Versions: 1 2 3 4 5 6 7 8 9 10 11 12
335
FTUS43 KJKL 281120
TAFSJS
TAF
KSJS 281120Z 2812/2912 00000KT P6SM SKC
     FM281600 18005KT P6SM SKC=

USA.gov is the U.S. government's official web portal to all federal, state and local government web resources and services.